sensor_id;sensor_type;location;lat;lon;timestamp;P1;durP1;ratioP1;P2;durP2;ratioP2
52480;SDS011;38393;52.404;13.532;2023-04-24T00:02:16;9.27;;;6.63;;
52480;SDS011;38393;52.404;13.532;2023-04-24T00:04:41;8.23;;;6.60;;
52480;SDS011;38393;52.404;13.532;2023-04-24T00:07:09;12.00;;;7.00;;
52480;SDS011;38393;52.404;13.532;2023-04-24T00:09:35;9.67;;;6.93;;
52480;SDS011;38393;52.404;13.532;2023-04-24T00:12:01;11.50;;;6.80;;
52480;SDS011;38393;52.404;13.532;2023-04-24T00:14:29;10.67;;;6.77;;
52480;SDS011;38393;52.404;13.532;2023-04-24T00:16:55;9.67;;;7.10;;
52480;SDS011;38393;52.404;13.532;2023-04-24T00:19:20;9.83;;;7.03;;
52480;SDS011;38393;52.404;13.532;2023-04-24T00:21:46;8.47;;;6.40;;
52480;SDS011;38393;52.404;13.532;2023-04-24T00:24:14;9.03;;;7.13;;
52480;SDS011;38393;52.404;13.532;2023-04-24T00:26:40;11.60;;;7.30;;
52480;SDS011;38393;52.404;13.532;2023-04-24T00:29:06;10.13;;;7.30;;
52480;SDS011;38393;52.404;13.532;2023-04-24T00:31:31;9.20;;;6.90;;
52480;SDS011;38393;52.404;13.532;2023-04-24T00:33:59;10.07;;;7.33;;
52480;SDS011;38393;52.404;13.532;2023-04-24T00:36:25;10.33;;;6.97;;
52480;SDS011;38393;52.404;13.532;2023-04-24T00:38:51;9.17;;;7.27;;
52480;SDS011;38393;52.404;13.532;2023-04-24T00:41:17;10.73;;;6.90;;
52480;SDS011;38393;52.404;13.532;2023-04-24T00:43:43;12.10;;;8.20;;
52480;SDS011;38393;52.404;13.532;2023-04-24T00:46:09;9.93;;;6.90;;
52480;SDS011;38393;52.404;13.532;2023-04-24T00:48:35;12.63;;;7.03;;
52480;SDS011;38393;52.404;13.532;2023-04-24T00:51:03;10.63;;;8.03;;
52480;SDS011;38393;52.404;13.532;2023-04-24T00:53:29;10.03;;;7.37;;
52480;SDS011;38393;52.404;13.532;2023-04-24T00:55:54;10.17;;;7.17;;
52480;SDS011;38393;52.404;13.532;2023-04-24T00:58:21;9.53;;;7.23;;
52480;SDS011;38393;52.404;13.532;2023-04-24T01:00:47;9.87;;;7.60;;
52480;SDS011;38393;52.404;13.532;2023-04-24T01:03:15;9.27;;;7.23;;
52480;SDS011;38393;52.404;13.532;2023-04-24T01:05:41;9.60;;;7.63;;
52480;SDS011;38393;52.404;13.532;2023-04-24T01:08:07;11.00;;;7.90;;
52480;SDS011;38393;52.404;13.532;2023-04-24T01:10:33;11.17;;;7.90;;
52480;SDS011;38393;52.404;13.532;2023-04-24T01:13:01;11.23;;;8.27;;
52480;SDS011;38393;52.404;13.532;2023-04-24T01:15:27;12.90;;;8.77;;
52480;SDS011;38393;52.404;13.532;2023-04-24T01:17:53;11.93;;;8.43;;
52480;SDS011;38393;52.404;13.532;2023-04-24T01:20:18;13.03;;;8.70;;
52480;SDS011;38393;52.404;13.532;2023-04-24T01:22:45;12.37;;;8.20;;
52480;SDS011;38393;52.404;13.532;2023-04-24T01:25:11;11.20;;;8.93;;
52480;SDS011;38393;52.404;13.532;2023-04-24T01:27:36;11.30;;;8.47;;
52480;SDS011;38393;52.404;13.532;2023-04-24T01:30:02;11.00;;;8.53;;
52480;SDS011;38393;52.404;13.532;2023-04-24T01:32:28;10.50;;;7.90;;
52480;SDS011;38393;52.404;13.532;2023-04-24T01:34:53;11.03;;;8.57;;
52480;SDS011;38393;52.404;13.532;2023-04-24T01:37:20;12.77;;;8.43;;
52480;SDS011;38393;52.404;13.532;2023-04-24T01:39:45;13.13;;;8.83;;
52480;SDS011;38393;52.404;13.532;2023-04-24T01:42:11;10.47;;;8.50;;
52480;SDS011;38393;52.404;13.532;2023-04-24T01:44:38;11.43;;;8.63;;
52480;SDS011;38393;52.404;13.532;2023-04-24T01:47:03;14.10;;;8.53;;
52480;SDS011;38393;52.404;13.532;2023-04-24T01:49:30;11.93;;;8.37;;
52480;SDS011;38393;52.404;13.532;2023-04-24T01:51:56;12.00;;;7.97;;
52480;SDS011;38393;52.404;13.532;2023-04-24T01:54:21;11.30;;;8.20;;
52480;SDS011;38393;52.404;13.532;2023-04-24T01:56:47;10.40;;;8.33;;
52480;SDS011;38393;52.404;13.532;2023-04-24T01:59:13;11.60;;;8.50;;
52480;SDS011;38393;52.404;13.532;2023-04-24T02:01:41;10.37;;;8.07;;
52480;SDS011;38393;52.404;13.532;2023-04-24T02:04:07;10.77;;;7.90;;
52480;SDS011;38393;52.404;13.532;2023-04-24T02:06:33;14.77;;;8.47;;
52480;SDS011;38393;52.404;13.532;2023-04-24T02:08:59;12.03;;;8.13;;
52480;SDS011;38393;52.404;13.532;2023-04-24T02:11:25;10.93;;;8.03;;
52480;SDS011;38393;52.404;13.532;2023-04-24T02:13:51;11.20;;;8.47;;
52480;SDS011;38393;52.404;13.532;2023-04-24T02:16:17;11.07;;;8.77;;
52480;SDS011;38393;52.404;13.532;2023-04-24T02:18:42;12.77;;;8.67;;
52480;SDS011;38393;52.404;13.532;2023-04-24T02:21:08;12.03;;;8.90;;
52480;SDS011;38393;52.404;13.532;2023-04-24T02:23:34;13.23;;;9.73;;
52480;SDS011;38393;52.404;13.532;2023-04-24T02:26:00;13.57;;;9.90;;
52480;SDS011;38393;52.404;13.532;2023-04-24T02:28:25;10.33;;;8.10;;
52480;SDS011;38393;52.404;13.532;2023-04-24T02:30:51;13.60;;;9.33;;
52480;SDS011;38393;52.404;13.532;2023-04-24T02:33:17;12.27;;;9.03;;
52480;SDS011;38393;52.404;13.532;2023-04-24T02:35:42;13.97;;;9.43;;
52480;SDS011;38393;52.404;13.532;2023-04-24T02:38:08;12.00;;;9.03;;
52480;SDS011;38393;52.404;13.532;2023-04-24T02:40:33;12.43;;;8.87;;
52480;SDS011;38393;52.404;13.532;2023-04-24T02:42:59;13.77;;;9.37;;
52480;SDS011;38393;52.404;13.532;2023-04-24T02:45:24;10.73;;;8.53;;
52480;SDS011;38393;52.404;13.532;2023-04-24T02:47:50;13.00;;;9.50;;
52480;SDS011;38393;52.404;13.532;2023-04-24T02:50:15;12.17;;;9.20;;
52480;SDS011;38393;52.404;13.532;2023-04-24T02:52:41;12.20;;;9.23;;
52480;SDS011;38393;52.404;13.532;2023-04-24T02:55:06;13.97;;;9.47;;
52480;SDS011;38393;52.404;13.532;2023-04-24T02:57:33;14.90;;;10.00;;
52480;SDS011;38393;52.404;13.532;2023-04-24T02:59:58;13.37;;;9.40;;
52480;SDS011;38393;52.404;13.532;2023-04-24T03:02:24;15.83;;;9.07;;
52480;SDS011;38393;52.404;13.532;2023-04-24T03:04:50;12.63;;;9.50;;
52480;SDS011;38393;52.404;13.532;2023-04-24T03:07:15;12.87;;;9.10;;
52480;SDS011;38393;52.404;13.532;2023-04-24T03:09:41;12.00;;;8.33;;
52480;SDS011;38393;52.404;13.532;2023-04-24T03:12:06;10.83;;;8.43;;
52480;SDS011;38393;52.404;13.532;2023-04-24T03:14:32;11.97;;;8.73;;
52480;SDS011;38393;52.404;13.532;2023-04-24T03:16:57;12.43;;;8.67;;
52480;SDS011;38393;52.404;13.532;2023-04-24T03:19:23;12.13;;;8.90;;
52480;SDS011;38393;52.404;13.532;2023-04-24T03:21:49;12.23;;;9.00;;
52480;SDS011;38393;52.404;13.532;2023-04-24T03:24:15;12.93;;;9.37;;
52480;SDS011;38393;52.404;13.532;2023-04-24T03:26:40;11.27;;;8.70;;
52480;SDS011;38393;52.404;13.532;2023-04-24T03:29:06;11.63;;;8.47;;
52480;SDS011;38393;52.404;13.532;2023-04-24T03:31:31;14.93;;;8.87;;
52480;SDS011;38393;52.404;13.532;2023-04-24T03:33:56;12.63;;;9.20;;
52480;SDS011;38393;52.404;13.532;2023-04-24T03:36:22;13.77;;;9.30;;
52480;SDS011;38393;52.404;13.532;2023-04-24T03:38:47;11.93;;;9.00;;
52480;SDS011;38393;52.404;13.532;2023-04-24T03:41:13;12.70;;;8.50;;
52480;SDS011;38393;52.404;13.532;2023-04-24T03:43:38;12.10;;;8.87;;
52480;SDS011;38393;52.404;13.532;2023-04-24T03:46:04;14.03;;;9.17;;
52480;SDS011;38393;52.404;13.532;2023-04-24T03:48:29;11.70;;;8.43;;
52480;SDS011;38393;52.404;13.532;2023-04-24T03:50:55;10.43;;;8.13;;
52480;SDS011;38393;52.404;13.532;2023-04-24T03:53:20;11.80;;;8.60;;
52480;SDS011;38393;52.404;13.532;2023-04-24T03:55:46;11.97;;;8.73;;
52480;SDS011;38393;52.404;13.532;2023-04-24T03:58:11;11.63;;;8.27;;
52480;SDS011;38393;52.404;13.532;2023-04-24T04:00:39;14.37;;;8.90;;
52480;SDS011;38393;52.404;13.532;2023-04-24T04:03:05;14.10;;;9.37;;
52480;SDS011;38393;52.404;13.532;2023-04-24T04:05:30;12.40;;;9.10;;
52480;SDS011;38393;52.404;13.532;2023-04-24T04:07:56;11.70;;;9.00;;
52480;SDS011;38393;52.404;13.532;2023-04-24T04:10:21;12.50;;;9.17;;
52480;SDS011;38393;52.404;13.532;2023-04-24T04:12:47;13.50;;;9.33;;
52480;SDS011;38393;52.404;13.532;2023-04-24T04:15:12;12.00;;;8.90;;
52480;SDS011;38393;52.404;13.532;2023-04-24T04:17:38;11.80;;;9.20;;
52480;SDS011;38393;52.404;13.532;2023-04-24T04:20:04;12.27;;;9.30;;
52480;SDS011;38393;52.404;13.532;2023-04-24T04:22:34;12.93;;;9.90;;
52480;SDS011;38393;52.404;13.532;2023-04-24T04:25:01;13.17;;;8.73;;
52480;SDS011;38393;52.404;13.532;2023-04-24T04:27:26;13.20;;;8.73;;
52480;SDS011;38393;52.404;13.532;2023-04-24T04:29:53;12.70;;;9.20;;
52480;SDS011;38393;52.404;13.532;2023-04-24T04:32:18;12.00;;;8.60;;
52480;SDS011;38393;52.404;13.532;2023-04-24T04:34:44;12.43;;;8.50;;
52480;SDS011;38393;52.404;13.532;2023-04-24T04:37:10;16.80;;;8.00;;
52480;SDS011;38393;52.404;13.532;2023-04-24T04:39:37;12.30;;;8.27;;
52480;SDS011;38393;52.404;13.532;2023-04-24T04:42:03;12.33;;;8.33;;
52480;SDS011;38393;52.404;13.532;2023-04-24T04:44:28;11.93;;;8.50;;
52480;SDS011;38393;52.404;13.532;2023-04-24T04:46:55;12.07;;;8.00;;
52480;SDS011;38393;52.404;13.532;2023-04-24T04:49:21;10.37;;;7.93;;
52480;SDS011;38393;52.404;13.532;2023-04-24T04:51:48;12.13;;;8.07;;
52480;SDS011;38393;52.404;13.532;2023-04-24T04:54:14;10.20;;;7.77;;
52480;SDS011;38393;52.404;13.532;2023-04-24T04:56:40;9.80;;;7.30;;
52480;SDS011;38393;52.404;13.532;2023-04-24T04:59:06;10.67;;;7.50;;
52480;SDS011;38393;52.404;13.532;2023-04-24T05:01:31;9.30;;;7.00;;
52480;SDS011;38393;52.404;13.532;2023-04-24T05:03:57;9.87;;;6.63;;
52480;SDS011;38393;52.404;13.532;2023-04-24T05:06:22;8.33;;;6.17;;
52480;SDS011;38393;52.404;13.532;2023-04-24T05:08:48;9.70;;;6.20;;
52480;SDS011;38393;52.404;13.532;2023-04-24T05:11:13;8.80;;;5.93;;
52480;SDS011;38393;52.404;13.532;2023-04-24T05:13:39;8.87;;;6.20;;
52480;SDS011;38393;52.404;13.532;2023-04-24T05:16:05;8.37;;;5.87;;
52480;SDS011;38393;52.404;13.532;2023-04-24T05:18:31;8.67;;;6.10;;
52480;SDS011;38393;52.404;13.532;2023-04-24T05:20:56;7.57;;;5.60;;
52480;SDS011;38393;52.404;13.532;2023-04-24T05:23:22;7.43;;;5.50;;
52480;SDS011;38393;52.404;13.532;2023-04-24T05:25:47;6.80;;;5.50;;
52480;SDS011;38393;52.404;13.532;2023-04-24T05:28:13;10.57;;;5.10;;
52480;SDS011;38393;52.404;13.532;2023-04-24T05:30:38;6.30;;;4.80;;
52480;SDS011;38393;52.404;13.532;2023-04-24T05:33:04;6.00;;;4.90;;
52480;SDS011;38393;52.404;13.532;2023-04-24T05:35:30;7.37;;;4.90;;
52480;SDS011;38393;52.404;13.532;2023-04-24T05:37:56;10.27;;;5.13;;
52480;SDS011;38393;52.404;13.532;2023-04-24T05:40:21;6.57;;;4.90;;
52480;SDS011;38393;52.404;13.532;2023-04-24T05:42:47;5.40;;;4.10;;
52480;SDS011;38393;52.404;13.532;2023-04-24T05:45:12;5.17;;;4.30;;
52480;SDS011;38393;52.404;13.532;2023-04-24T05:47:41;6.40;;;3.90;;
52480;SDS011;38393;52.404;13.532;2023-04-24T05:50:08;5.67;;;3.33;;
52480;SDS011;38393;52.404;13.532;2023-04-24T05:52:34;5.43;;;3.37;;
52480;SDS011;38393;52.404;13.532;2023-04-24T05:55:00;4.77;;;3.47;;
52480;SDS011;38393;52.404;13.532;2023-04-24T05:57:25;4.93;;;3.17;;
52480;SDS011;38393;52.404;13.532;2023-04-24T05:59:51;4.10;;;3.10;;
52480;SDS011;38393;52.404;13.532;2023-04-24T06:02:16;11.33;;;2.90;;
52480;SDS011;38393;52.404;13.532;2023-04-24T06:04:42;4.03;;;2.70;;
52480;SDS011;38393;52.404;13.532;2023-04-24T06:07:10;3.97;;;2.60;;
52480;SDS011;38393;52.404;13.532;2023-04-24T06:09:36;4.17;;;2.70;;
52480;SDS011;38393;52.404;13.532;2023-04-24T06:12:01;5.03;;;3.00;;
52480;SDS011;38393;52.404;13.532;2023-04-24T06:14:27;3.43;;;2.60;;
52480;SDS011;38393;52.404;13.532;2023-04-24T06:16:53;3.57;;;2.63;;
52480;SDS011;38393;52.404;13.532;2023-04-24T06:19:18;4.63;;;2.70;;
52480;SDS011;38393;52.404;13.532;2023-04-24T06:21:44;5.57;;;2.60;;
52480;SDS011;38393;52.404;13.532;2023-04-24T06:24:09;4.87;;;2.37;;
52480;SDS011;38393;52.404;13.532;2023-04-24T06:26:35;3.10;;;2.33;;
52480;SDS011;38393;52.404;13.532;2023-04-24T06:29:01;3.47;;;2.50;;
52480;SDS011;38393;52.404;13.532;2023-04-24T06:31:26;3.57;;;2.33;;
52480;SDS011;38393;52.404;13.532;2023-04-24T06:33:52;4.63;;;2.50;;
52480;SDS011;38393;52.404;13.532;2023-04-24T06:36:17;4.17;;;2.40;;
52480;SDS011;38393;52.404;13.532;2023-04-24T06:38:43;3.43;;;2.30;;
52480;SDS011;38393;52.404;13.532;2023-04-24T06:41:09;6.77;;;2.53;;
52480;SDS011;38393;52.404;13.532;2023-04-24T06:43:35;2.40;;;2.10;;
52480;SDS011;38393;52.404;13.532;2023-04-24T06:46:00;3.23;;;2.20;;
52480;SDS011;38393;52.404;13.532;2023-04-24T06:48:28;4.10;;;1.90;;
52480;SDS011;38393;52.404;13.532;2023-04-24T06:50:53;4.17;;;2.10;;
52480;SDS011;38393;52.404;13.532;2023-04-24T06:53:19;2.93;;;1.97;;
52480;SDS011;38393;52.404;13.532;2023-04-24T06:55:45;3.17;;;1.97;;
52480;SDS011;38393;52.404;13.532;2023-04-24T06:58:11;2.50;;;1.80;;
52480;SDS011;38393;52.404;13.532;2023-04-24T07:00:36;3.33;;;1.83;;
52480;SDS011;38393;52.404;13.532;2023-04-24T07:03:02;2.73;;;1.80;;
52480;SDS011;38393;52.404;13.532;2023-04-24T07:05:30;2.97;;;1.67;;
52480;SDS011;38393;52.404;13.532;2023-04-24T07:07:55;2.53;;;1.90;;
52480;SDS011;38393;52.404;13.532;2023-04-24T07:10:23;3.77;;;1.77;;
52480;SDS011;38393;52.404;13.532;2023-04-24T07:12:49;2.13;;;1.60;;
52480;SDS011;38393;52.404;13.532;2023-04-24T07:15:14;2.03;;;1.60;;
52480;SDS011;38393;52.404;13.532;2023-04-24T07:17:41;2.80;;;1.70;;
52480;SDS011;38393;52.404;13.532;2023-04-24T07:20:09;1.80;;;1.60;;
52480;SDS011;38393;52.404;13.532;2023-04-24T07:22:35;4.83;;;1.60;;
52480;SDS011;38393;52.404;13.532;2023-04-24T07:25:02;2.97;;;2.00;;
52480;SDS011;38393;52.404;13.532;2023-04-24T07:27:28;1.80;;;1.40;;
52480;SDS011;38393;52.404;13.532;2023-04-24T07:29:53;1.83;;;1.37;;
52480;SDS011;38393;52.404;13.532;2023-04-24T07:32:19;3.30;;;1.50;;
52480;SDS011;38393;52.404;13.532;2023-04-24T07:34:44;2.03;;;1.53;;
52480;SDS011;38393;52.404;13.532;2023-04-24T07:37:10;2.30;;;1.43;;
52480;SDS011;38393;52.404;13.532;2023-04-24T07:39:36;2.40;;;1.23;;
52480;SDS011;38393;52.404;13.532;2023-04-24T07:42:01;1.63;;;1.13;;
52480;SDS011;38393;52.404;13.532;2023-04-24T07:44:27;1.30;;;1.20;;
52480;SDS011;38393;52.404;13.532;2023-04-24T07:46:53;1.73;;;1.03;;
52480;SDS011;38393;52.404;13.532;2023-04-24T07:49:18;2.13;;;1.27;;
52480;SDS011;38393;52.404;13.532;2023-04-24T07:51:44;1.53;;;1.23;;
52480;SDS011;38393;52.404;13.532;2023-04-24T07:54:10;1.63;;;1.27;;
52480;SDS011;38393;52.404;13.532;2023-04-24T07:56:35;3.30;;;1.30;;
52480;SDS011;38393;52.404;13.532;2023-04-24T07:59:03;2.47;;;1.33;;
52480;SDS011;38393;52.404;13.532;2023-04-24T08:01:29;1.73;;;1.10;;
52480;SDS011;38393;52.404;13.532;2023-04-24T08:03:55;3.20;;;1.30;;
52480;SDS011;38393;52.404;13.532;2023-04-24T08:06:20;2.17;;;1.00;;
52480;SDS011;38393;52.404;13.532;2023-04-24T08:08:46;1.67;;;1.13;;
52480;SDS011;38393;52.404;13.532;2023-04-24T08:11:11;1.93;;;1.20;;
52480;SDS011;38393;52.404;13.532;2023-04-24T08:13:37;2.60;;;1.10;;
52480;SDS011;38393;52.404;13.532;2023-04-24T08:16:02;3.70;;;1.60;;
52480;SDS011;38393;52.404;13.532;2023-04-24T08:18:28;4.37;;;1.10;;
52480;SDS011;38393;52.404;13.532;2023-04-24T08:20:53;3.73;;;1.20;;
52480;SDS011;38393;52.404;13.532;2023-04-24T08:23:19;4.57;;;1.17;;
52480;SDS011;38393;52.404;13.532;2023-04-24T08:25:44;1.33;;;1.00;;
52480;SDS011;38393;52.404;13.532;2023-04-24T08:28:10;1.90;;;1.17;;
52480;SDS011;38393;52.404;13.532;2023-04-24T08:30:35;1.25;;;0.90;;
52480;SDS011;38393;52.404;13.532;2023-04-24T08:33:01;3.53;;;1.00;;
52480;SDS011;38393;52.404;13.532;2023-04-24T08:35:27;1.45;;;0.70;;
52480;SDS011;38393;52.404;13.532;2023-04-24T08:37:52;1.88;;;1.00;;
52480;SDS011;38393;52.404;13.532;2023-04-24T08:40:18;2.15;;;1.00;;
52480;SDS011;38393;52.404;13.532;2023-04-24T08:42:51;3.60;;;0.90;;
52480;SDS011;38393;52.404;13.532;2023-04-24T08:45:20;3.40;;;0.90;;
52480;SDS011;38393;52.404;13.532;2023-04-24T08:47:45;1.13;;;0.95;;
52480;SDS011;38393;52.404;13.532;2023-04-24T08:50:11;1.33;;;0.93;;
52480;SDS011;38393;52.404;13.532;2023-04-24T08:52:37;2.40;;;1.00;;
52480;SDS011;38393;52.404;13.532;2023-04-24T08:55:03;1.35;;;0.90;;
52480;SDS011;38393;52.404;13.532;2023-04-24T08:57:30;2.08;;;0.90;;
52480;SDS011;38393;52.404;13.532;2023-04-24T08:59:58;2.00;;;1.08;;
52480;SDS011;38393;52.404;13.532;2023-04-24T09:02:24;1.83;;;1.10;;
52480;SDS011;38393;52.404;13.532;2023-04-24T09:04:50;0.95;;;0.88;;
52480;SDS011;38393;52.404;13.532;2023-04-24T09:07:18;2.40;;;1.20;;
52480;SDS011;38393;52.404;13.532;2023-04-24T09:09:44;2.08;;;0.90;;
52480;SDS011;38393;52.404;13.532;2023-04-24T09:12:10;2.90;;;1.10;;
52480;SDS011;38393;52.404;13.532;2023-04-24T09:14:36;2.28;;;0.88;;
52480;SDS011;38393;52.404;13.532;2023-04-24T09:17:07;1.40;;;1.00;;
52480;SDS011;38393;52.404;13.532;2023-04-24T09:19:32;3.15;;;1.35;;
52480;SDS011;38393;52.404;13.532;2023-04-24T09:21:58;2.92;;;1.10;;
52480;SDS011;38393;52.404;13.532;2023-04-24T09:24:23;3.05;;;1.10;;
52480;SDS011;38393;52.404;13.532;2023-04-24T09:26:57;1.65;;;1.20;;
52480;SDS011;38393;52.404;13.532;2023-04-24T09:29:23;5.53;;;1.50;;
52480;SDS011;38393;52.404;13.532;2023-04-24T09:31:49;3.03;;;1.42;;
52480;SDS011;38393;52.404;13.532;2023-04-24T09:34:18;2.72;;;1.30;;
52480;SDS011;38393;52.404;13.532;2023-04-24T09:36:50;3.85;;;1.63;;
52480;SDS011;38393;52.404;13.532;2023-04-24T09:39:16;2.22;;;1.13;;
52480;SDS011;38393;52.404;13.532;2023-04-24T09:44:15;3.17;;;1.10;;
52480;SDS011;38393;52.404;13.532;2023-04-24T09:46:43;1.75;;;1.20;;
52480;SDS011;38393;52.404;13.532;2023-04-24T09:49:11;1.63;;;1.05;;
52480;SDS011;38393;52.404;13.532;2023-04-24T09:51:38;3.38;;;1.30;;
52480;SDS011;38393;52.404;13.532;2023-04-24T09:54:05;1.83;;;1.23;;
52480;SDS011;38393;52.404;13.532;2023-04-24T09:56:45;1.88;;;0.98;;
52480;SDS011;38393;52.404;13.532;2023-04-24T09:59:12;1.95;;;1.02;;
52480;SDS011;38393;52.404;13.532;2023-04-24T10:01:39;1.95;;;1.00;;
52480;SDS011;38393;52.404;13.532;2023-04-24T10:04:14;1.50;;;0.85;;
52480;SDS011;38393;52.404;13.532;2023-04-24T10:06:44;1.98;;;1.00;;
52480;SDS011;38393;52.404;13.532;2023-04-24T10:09:10;2.25;;;1.00;;
52480;SDS011;38393;52.404;13.532;2023-04-24T10:11:37;1.65;;;0.93;;
52480;SDS011;38393;52.404;13.532;2023-04-24T10:14:09;4.35;;;1.10;;
52480;SDS011;38393;52.404;13.532;2023-04-24T10:16:36;5.25;;;1.10;;
52480;SDS011;38393;52.404;13.532;2023-04-24T10:19:03;1.30;;;1.10;;
52480;SDS011;38393;52.404;13.532;2023-04-24T10:21:28;3.22;;;1.05;;
52480;SDS011;38393;52.404;13.532;2023-04-24T10:23:55;1.90;;;1.20;;
52480;SDS011;38393;52.404;13.532;2023-04-24T10:26:20;2.58;;;1.20;;
52480;SDS011;38393;52.404;13.532;2023-04-24T10:28:47;2.20;;;1.20;;
52480;SDS011;38393;52.404;13.532;2023-04-24T10:31:13;3.15;;;1.20;;
52480;SDS011;38393;52.404;13.532;2023-04-24T10:33:40;2.47;;;1.17;;
52480;SDS011;38393;52.404;13.532;2023-04-24T10:36:07;3.60;;;1.40;;
52480;SDS011;38393;52.404;13.532;2023-04-24T10:38:34;2.83;;;1.30;;
52480;SDS011;38393;52.404;13.532;2023-04-24T10:41:08;5.35;;;1.40;;
52480;SDS011;38393;52.404;13.532;2023-04-24T10:43:39;1.30;;;1.20;;
52480;SDS011;38393;52.404;13.532;2023-04-24T10:46:05;1.83;;;1.30;;
52480;SDS011;38393;52.404;13.532;2023-04-24T10:48:31;2.97;;;1.35;;
52480;SDS011;38393;52.404;13.532;2023-04-24T10:50:58;2.00;;;1.27;;
52480;SDS011;38393;52.404;13.532;2023-04-24T10:53:24;6.25;;;1.23;;
52480;SDS011;38393;52.404;13.532;2023-04-24T10:56:02;3.28;;;1.30;;
52480;SDS011;38393;52.404;13.532;2023-04-24T10:58:35;1.50;;;1.10;;
52480;SDS011;38393;52.404;13.532;2023-04-24T11:01:13;1.63;;;1.02;;
52480;SDS011;38393;52.404;13.532;2023-04-24T11:03:50;1.55;;;1.20;;
52480;SDS011;38393;52.404;13.532;2023-04-24T11:06:19;4.75;;;1.45;;
52480;SDS011;38393;52.404;13.532;2023-04-24T11:08:58;2.60;;;1.30;;
52480;SDS011;38393;52.404;13.532;2023-04-24T11:11:28;3.17;;;1.20;;
52480;SDS011;38393;52.404;13.532;2023-04-24T11:18:49;4.85;;;1.25;;
52480;SDS011;38393;52.404;13.532;2023-04-24T11:21:25;3.08;;;1.33;;
52480;SDS011;38393;52.404;13.532;2023-04-24T11:23:56;3.80;;;1.23;;
52480;SDS011;38393;52.404;13.532;2023-04-24T11:26:23;3.35;;;1.10;;
52480;SDS011;38393;52.404;13.532;2023-04-24T11:29:05;1.33;;;1.23;;
52480;SDS011;38393;52.404;13.532;2023-04-24T11:31:36;2.15;;;1.33;;
52480;SDS011;38393;52.404;13.532;2023-04-24T11:34:07;2.28;;;1.20;;
52480;SDS011;38393;52.404;13.532;2023-04-24T11:36:35;3.20;;;1.42;;
52480;SDS011;38393;52.404;13.532;2023-04-24T11:39:00;10.47;;;2.83;;
52480;SDS011;38393;52.404;13.532;2023-04-24T11:41:27;3.97;;;2.70;;
52480;SDS011;38393;52.404;13.532;2023-04-24T11:43:53;7.17;;;2.90;;
52480;SDS011;38393;52.404;13.532;2023-04-24T11:46:21;4.03;;;2.50;;
52480;SDS011;38393;52.404;13.532;2023-04-24T11:48:47;4.13;;;2.73;;
52480;SDS011;38393;52.404;13.532;2023-04-24T11:51:12;2.87;;;2.37;;
52480;SDS011;38393;52.404;13.532;2023-04-24T11:53:38;4.87;;;2.47;;
52480;SDS011;38393;52.404;13.532;2023-04-24T11:56:04;3.47;;;3.00;;
52480;SDS011;38393;52.404;13.532;2023-04-24T11:58:37;3.43;;;3.10;;
52480;SDS011;38393;52.404;13.532;2023-04-24T12:01:04;4.07;;;2.80;;
52480;SDS011;38393;52.404;13.532;2023-04-24T12:03:30;2.93;;;2.40;;
52480;SDS011;38393;52.404;13.532;2023-04-24T12:06:05;1.97;;;1.87;;
52480;SDS011;38393;52.404;13.532;2023-04-24T12:08:35;3.87;;;2.10;;
52480;SDS011;38393;52.404;13.532;2023-04-24T12:11:01;5.23;;;1.87;;
52480;SDS011;38393;52.404;13.532;2023-04-24T12:13:27;8.07;;;3.93;;
52480;SDS011;38393;52.404;13.532;2023-04-24T12:15:53;4.33;;;2.20;;
52480;SDS011;38393;52.404;13.532;2023-04-24T12:18:21;2.53;;;1.87;;
52480;SDS011;38393;52.404;13.532;2023-04-24T12:20:47;3.00;;;2.20;;
52480;SDS011;38393;52.404;13.532;2023-04-24T12:23:13;9.47;;;2.63;;
52480;SDS011;38393;52.404;13.532;2023-04-24T12:25:38;2.70;;;2.10;;
52480;SDS011;38393;52.404;13.532;2023-04-24T12:30:32;2.05;;;1.40;;
52480;SDS011;38393;52.404;13.532;2023-04-24T12:32:59;4.57;;;1.90;;
52480;SDS011;38393;52.404;13.532;2023-04-24T12:35:27;2.63;;;1.40;;
52480;SDS011;38393;52.404;13.532;2023-04-24T12:37:53;3.80;;;1.67;;
52480;SDS011;38393;52.404;13.532;2023-04-24T12:40:19;3.28;;;1.42;;
52480;SDS011;38393;52.404;13.532;2023-04-24T12:42:50;2.85;;;1.10;;
52480;SDS011;38393;52.404;13.532;2023-04-24T12:45:19;1.45;;;1.20;;
52480;SDS011;38393;52.404;13.532;2023-04-24T12:47:45;1.98;;;1.17;;
52480;SDS011;38393;52.404;13.532;2023-04-24T12:50:14;3.85;;;1.00;;
52480;SDS011;38393;52.404;13.532;2023-04-24T12:52:40;1.85;;;1.10;;
52480;SDS011;38393;52.404;13.532;2023-04-24T12:55:06;1.20;;;0.85;;
52480;SDS011;38393;52.404;13.532;2023-04-24T12:57:33;3.72;;;0.98;;
52480;SDS011;38393;52.404;13.532;2023-04-24T12:59:59;1.30;;;0.90;;
52480;SDS011;38393;52.404;13.532;2023-04-24T13:02:26;2.80;;;1.20;;
52480;SDS011;38393;52.404;13.532;2023-04-24T13:04:54;2.00;;;0.82;;
52480;SDS011;38393;52.404;13.532;2023-04-24T13:07:19;3.58;;;1.23;;
52480;SDS011;38393;52.404;13.532;2023-04-24T13:09:45;3.28;;;0.82;;
52480;SDS011;38393;52.404;13.532;2023-04-24T13:12:13;1.50;;;1.00;;
52480;SDS011;38393;52.404;13.532;2023-04-24T13:14:39;7.10;;;1.17;;
52480;SDS011;38393;52.404;13.532;2023-04-24T13:17:05;4.82;;;1.10;;
52480;SDS011;38393;52.404;13.532;2023-04-24T13:19:39;3.50;;;1.05;;
52480;SDS011;38393;52.404;13.532;2023-04-24T13:22:06;4.63;;;0.98;;
52480;SDS011;38393;52.404;13.532;2023-04-24T13:24:32;3.35;;;0.80;;
52480;SDS011;38393;52.404;13.532;2023-04-24T13:26:58;4.07;;;0.95;;
52480;SDS011;38393;52.404;13.532;2023-04-24T13:29:25;1.88;;;0.90;;
52480;SDS011;38393;52.404;13.532;2023-04-24T13:31:51;5.45;;;1.00;;
52480;SDS011;38393;52.404;13.532;2023-04-24T13:34:17;1.00;;;0.80;;
52480;SDS011;38393;52.404;13.532;2023-04-24T13:36:42;1.38;;;1.00;;
52480;SDS011;38393;52.404;13.532;2023-04-24T13:39:08;2.90;;;0.98;;
52480;SDS011;38393;52.404;13.532;2023-04-24T13:41:35;4.50;;;0.90;;
52480;SDS011;38393;52.404;13.532;2023-04-24T13:44:01;0.80;;;0.80;;
52480;SDS011;38393;52.404;13.532;2023-04-24T13:46:30;3.70;;;1.00;;
52480;SDS011;38393;52.404;13.532;2023-04-24T13:48:56;3.85;;;1.20;;
52480;SDS011;38393;52.404;13.532;2023-04-24T13:51:22;1.58;;;0.82;;
52480;SDS011;38393;52.404;13.532;2023-04-24T13:53:48;2.40;;;0.90;;
52480;SDS011;38393;52.404;13.532;2023-04-24T13:56:13;2.85;;;1.10;;
52480;SDS011;38393;52.404;13.532;2023-04-24T13:58:39;6.13;;;1.38;;
52480;SDS011;38393;52.404;13.532;2023-04-24T14:01:05;2.85;;;1.08;;
52480;SDS011;38393;52.404;13.532;2023-04-24T14:03:31;4.32;;;1.20;;
52480;SDS011;38393;52.404;13.532;2023-04-24T14:05:58;1.50;;;1.00;;
52480;SDS011;38393;52.404;13.532;2023-04-24T14:08:23;1.60;;;1.00;;
52480;SDS011;38393;52.404;13.532;2023-04-24T14:10:49;6.22;;;1.50;;
52480;SDS011;38393;52.404;13.532;2023-04-24T14:13:15;1.80;;;1.20;;
52480;SDS011;38393;52.404;13.532;2023-04-24T14:15:41;1.20;;;0.80;;
52480;SDS011;38393;52.404;13.532;2023-04-24T14:18:06;1.13;;;1.02;;
52480;SDS011;38393;52.404;13.532;2023-04-24T14:20:32;1.45;;;1.10;;
52480;SDS011;38393;52.404;13.532;2023-04-24T14:22:57;5.07;;;0.90;;
52480;SDS011;38393;52.404;13.532;2023-04-24T14:25:26;4.97;;;1.00;;
52480;SDS011;38393;52.404;13.532;2023-04-24T14:27:51;2.30;;;1.13;;
52480;SDS011;38393;52.404;13.532;2023-04-24T14:30:18;1.58;;;1.20;;
52480;SDS011;38393;52.404;13.532;2023-04-24T14:32:44;1.65;;;1.20;;
52480;SDS011;38393;52.404;13.532;2023-04-24T14:35:09;3.13;;;1.20;;
52480;SDS011;38393;52.404;13.532;2023-04-24T14:37:35;1.35;;;1.00;;